createdAt,value
2023-10-23T00:00:56.977Z,8.20
2023-10-23T00:01:56.900Z,6.20
2023-10-23T00:02:56.961Z,6.00
2023-10-23T00:03:57.028Z,7.10
2023-10-23T00:04:56.971Z,5.80
2023-10-23T00:05:56.854Z,6.50
2023-10-23T00:06:56.859Z,7.40
2023-10-23T00:07:56.848Z,8.10
2023-10-23T00:08:56.894Z,6.70
2023-10-23T00:09:56.824Z,6.00
2023-10-23T00:10:56.808Z,5.90
2023-10-23T00:11:56.789Z,6.00
2023-10-23T00:12:57.145Z,6.20
2023-10-23T00:13:56.768Z,5.90
2023-10-23T00:14:56.765Z,7.50
2023-10-23T00:15:56.746Z,8.30
2023-10-23T00:16:56.770Z,7.30
2023-10-23T00:17:56.750Z,5.90
2023-10-23T00:18:56.744Z,6.00
2023-10-23T00:19:56.702Z,7.80
2023-10-23T00:20:56.696Z,6.60
2023-10-23T00:21:56.689Z,6.70
2023-10-23T00:22:56.689Z,9.60
2023-10-23T00:23:56.654Z,7.50
2023-10-23T00:24:56.655Z,6.90
2023-10-23T00:25:56.632Z,8.60
2023-10-23T00:26:56.647Z,6.20
2023-10-23T00:27:56.613Z,8.60
2023-10-23T00:28:56.617Z,5.40
2023-10-23T00:29:56.592Z,7.70
2023-10-23T00:30:56.636Z,6.20
2023-10-23T00:31:56.578Z,6.40
2023-10-23T00:32:56.650Z,8.50
2023-10-23T00:33:56.635Z,8.50
2023-10-23T00:34:56.547Z,7.70
2023-10-23T00:35:56.547Z,6.50
2023-10-23T00:36:56.567Z,6.90
2023-10-23T00:37:56.502Z,7.10
2023-10-23T00:38:56.494Z,7.40
2023-10-23T00:39:56.516Z,8.00
2023-10-23T00:40:56.482Z,7.40
2023-10-23T00:41:56.465Z,9.00
2023-10-23T00:42:56.489Z,6.30
2023-10-23T00:43:56.441Z,5.50
2023-10-23T00:44:56.429Z,5.70
2023-10-23T00:45:56.595Z,6.30
2023-10-23T00:46:56.447Z,5.40
2023-10-23T00:47:56.410Z,7.60
2023-10-23T00:48:56.412Z,5.30
2023-10-23T00:49:56.381Z,6.70
2023-10-23T00:50:56.411Z,8.00
2023-10-23T00:51:56.375Z,7.40
2023-10-23T00:52:56.342Z,6.20
2023-10-23T00:53:56.325Z,6.70
2023-10-23T00:54:56.414Z,7.40
2023-10-23T00:55:56.310Z,9.30
2023-10-23T00:56:56.302Z,6.60
2023-10-23T00:57:56.341Z,8.10
2023-10-23T00:58:56.281Z,6.30
2023-10-23T00:59:56.276Z,7.40
2023-10-23T01:00:56.472Z,8.00
2023-10-23T01:01:56.254Z,6.20
2023-10-23T01:02:56.272Z,6.70
2023-10-23T01:03:56.265Z,6.90
2023-10-23T01:04:56.227Z,7.90
2023-10-23T01:05:56.204Z,9.60
2023-10-23T01:06:56.242Z,7.00
2023-10-23T01:07:56.177Z,7.20
2023-10-23T01:08:56.205Z,8.30
2023-10-23T01:09:56.186Z,7.70
2023-10-23T01:10:56.171Z,7.40
2023-10-23T01:11:56.137Z,6.30
2023-10-23T01:12:56.161Z,7.70
2023-10-23T01:13:56.144Z,8.00
2023-10-23T01:14:56.113Z,7.20
2023-10-23T01:15:56.095Z,6.60
2023-10-23T01:16:56.161Z,8.30
2023-10-23T01:17:56.111Z,8.00
2023-10-23T01:18:56.107Z,7.80
2023-10-23T01:19:56.052Z,6.80
2023-10-23T01:20:56.048Z,7.30
2023-10-23T01:21:56.054Z,7.70
2023-10-23T01:22:56.035Z,7.00
2023-10-23T01:27:29.519Z,9.00
2023-10-23T01:28:30.486Z,9.60
2023-10-23T01:29:30.468Z,6.40
2023-10-23T01:30:30.490Z,10.10
2023-10-23T01:31:30.478Z,10.70
2023-10-23T01:32:30.742Z,7.70
2023-10-23T01:33:30.448Z,7.10
2023-10-23T01:34:30.420Z,8.10
2023-10-23T01:35:30.407Z,9.60
2023-10-23T01:36:30.426Z,7.70
2023-10-23T01:37:30.397Z,8.10
2023-10-23T01:38:30.375Z,7.80
2023-10-23T01:39:30.409Z,7.70
2023-10-23T01:40:30.350Z,9.50
2023-10-23T01:41:30.361Z,6.80
2023-10-23T01:42:30.354Z,8.40
2023-10-23T01:43:30.312Z,6.70
2023-10-23T01:44:30.305Z,6.50
2023-10-23T01:45:30.338Z,7.30
2023-10-23T01:46:30.416Z,8.60
2023-10-23T01:47:30.322Z,7.50
2023-10-23T01:48:30.272Z,9.10
2023-10-23T01:49:30.243Z,6.80
2023-10-23T01:50:30.261Z,8.60
2023-10-23T01:51:30.269Z,8.10
2023-10-23T01:52:30.215Z,8.80
2023-10-23T01:53:30.202Z,7.60
2023-10-23T01:54:30.213Z,9.50
2023-10-23T01:55:30.188Z,8.10
2023-10-23T01:56:30.173Z,7.30
2023-10-23T01:57:30.180Z,6.30
2023-10-23T01:58:30.148Z,7.10
2023-10-23T01:59:30.133Z,8.20
2023-10-23T02:00:30.218Z,6.70
2023-10-23T02:01:30.152Z,8.20
2023-10-23T02:02:30.174Z,6.70
2023-10-23T02:03:30.180Z,6.20
2023-10-23T02:04:30.107Z,8.70
2023-10-23T02:05:30.087Z,7.20
2023-10-23T02:06:30.094Z,7.90
2023-10-23T02:07:30.044Z,7.70
2023-10-23T02:08:30.062Z,6.40
2023-10-23T02:09:30.065Z,7.80
2023-10-23T02:10:30.023Z,7.60
2023-10-23T02:11:30.000Z,6.80
2023-10-23T02:12:30.016Z,7.50
2023-10-23T02:13:29.983Z,7.30
2023-10-23T02:14:29.982Z,6.90
2023-10-23T02:15:29.990Z,8.40
2023-10-23T02:16:29.988Z,9.00
2023-10-23T02:17:29.952Z,8.20
2023-10-23T02:18:30.001Z,6.80
2023-10-23T02:19:29.918Z,6.70
2023-10-23T02:20:29.904Z,7.60
2023-10-23T02:21:29.892Z,7.70
2023-10-23T02:22:29.879Z,7.40
2023-10-23T02:23:32.849Z,7.10
2023-10-23T02:24:29.905Z,7.40
2023-10-23T02:25:29.845Z,7.30
2023-10-23T02:26:29.835Z,7.20
2023-10-23T02:27:29.853Z,8.60
2023-10-23T02:28:29.854Z,6.40
2023-10-23T02:29:29.802Z,7.40
2023-10-23T02:30:29.831Z,8.60
2023-10-23T02:31:29.813Z,6.20
2023-10-23T02:32:29.790Z,7.60
2023-10-23T02:33:29.784Z,7.10
2023-10-23T02:34:29.767Z,7.80
2023-10-23T02:35:29.736Z,7.50
2023-10-23T02:36:29.783Z,9.00
2023-10-23T02:37:29.725Z,5.90
2023-10-23T02:38:29.734Z,7.30
2023-10-23T02:39:29.712Z,6.20
2023-10-23T02:40:29.696Z,6.00
2023-10-23T02:41:29.675Z,7.20
2023-10-23T02:42:29.693Z,7.80
2023-10-23T02:43:29.656Z,6.90
2023-10-23T02:44:29.696Z,6.70
2023-10-23T02:45:29.666Z,6.40
2023-10-23T02:46:29.648Z,7.80
2023-10-23T02:47:29.642Z,6.60
2023-10-23T02:48:29.650Z,6.40
2023-10-23T02:49:29.583Z,7.80
2023-10-23T02:50:29.579Z,7.00
2023-10-23T02:51:29.624Z,6.70
2023-10-23T02:52:29.567Z,7.40
2023-10-23T02:53:29.540Z,7.80
2023-10-23T02:54:29.612Z,6.30
2023-10-23T02:55:29.522Z,7.00
2023-10-23T02:56:29.525Z,8.30
2023-10-23T02:57:29.543Z,7.00
2023-10-23T02:58:29.493Z,6.60
2023-10-23T02:59:29.482Z,9.90
2023-10-23T03:00:29.500Z,7.50
2023-10-23T03:01:29.532Z,7.10
2023-10-23T03:02:29.559Z,7.70
2023-10-23T03:03:29.535Z,9.00
2023-10-23T03:04:29.468Z,7.50
2023-10-23T03:05:29.426Z,7.50
2023-10-23T03:06:29.466Z,8.40
2023-10-23T03:07:29.391Z,8.00
2023-10-23T03:08:29.392Z,7.60
2023-10-23T03:09:29.398Z,7.30
2023-10-23T03:10:29.372Z,6.80
2023-10-23T03:11:29.376Z,10.10
2023-10-23T03:12:29.355Z,11.70
2023-10-23T03:13:29.328Z,10.20
2023-10-23T03:14:29.334Z,10.10
2023-10-23T03:15:29.341Z,9.90
2023-10-23T03:16:29.366Z,9.70
2023-10-23T03:17:29.287Z,12.00
2023-10-23T03:18:29.294Z,8.90
2023-10-23T03:19:30.057Z,9.40
2023-10-23T03:20:30.140Z,9.50
2023-10-23T03:21:29.241Z,9.70
2023-10-23T03:22:29.220Z,9.10
2023-10-23T03:23:29.250Z,12.50
2023-10-23T03:24:29.221Z,9.30
2023-10-23T03:25:30.094Z,9.60
2023-10-23T03:26:29.185Z,9.90
2023-10-23T03:27:29.200Z,9.90
2023-10-23T03:28:29.161Z,11.00
2023-10-23T03:29:29.157Z,9.30
2023-10-23T03:30:29.193Z,10.00
2023-10-23T03:31:29.137Z,8.70
2023-10-23T03:32:29.146Z,9.30
2023-10-23T03:33:29.141Z,9.60
2023-10-23T03:34:29.094Z,8.30
2023-10-23T03:35:29.080Z,9.70
2023-10-23T03:36:29.117Z,9.70
2023-10-23T03:37:29.059Z,8.60
2023-10-23T03:38:29.051Z,8.90
2023-10-23T03:39:29.076Z,9.90
2023-10-23T03:40:29.023Z,10.70
2023-10-23T03:41:29.022Z,9.40
2023-10-23T03:42:29.013Z,9.70
2023-10-23T03:43:29.036Z,10.70
2023-10-23T03:44:28.976Z,13.30
2023-10-23T03:45:29.002Z,12.50
2023-10-23T03:46:28.991Z,13.40
2023-10-23T03:47:28.967Z,12.20
2023-10-23T03:48:28.975Z,14.60
2023-10-23T03:49:28.921Z,10.80
2023-10-23T03:50:28.906Z,12.20
2023-10-23T03:51:28.978Z,11.40
2023-10-23T03:52:28.897Z,13.40
2023-10-23T03:53:28.885Z,12.20
2023-10-23T03:54:28.894Z,14.00
2023-10-23T03:55:29.630Z,11.60
2023-10-23T03:56:28.850Z,11.70
2023-10-23T03:57:28.879Z,10.60
2023-10-23T03:58:28.825Z,13.50
2023-10-23T03:59:28.812Z,12.60
2023-10-23T04:00:28.811Z,11.10
2023-10-23T04:01:28.820Z,10.70
2023-10-23T04:02:28.810Z,10.20
2023-10-23T04:03:28.839Z,12.30
2023-10-23T04:04:30.937Z,11.20
2023-10-23T04:05:28.809Z,10.00
2023-10-23T04:06:28.764Z,11.30
2023-10-23T04:07:28.719Z,10.90
2023-10-23T04:08:28.719Z,11.50
2023-10-23T04:09:28.760Z,12.00
2023-10-23T04:10:28.696Z,11.30
2023-10-23T04:11:28.701Z,12.40
2023-10-23T04:12:28.688Z,11.30
2023-10-23T04:13:30.573Z,10.50
2023-10-23T04:14:28.643Z,14.00
2023-10-23T04:15:28.677Z,14.40
2023-10-23T04:16:28.711Z,11.20
2023-10-23T04:17:28.618Z,11.10
2023-10-23T04:18:28.664Z,12.90
2023-10-23T04:19:28.595Z,10.30
2023-10-23T04:20:28.597Z,16.30
2023-10-23T04:21:28.594Z,10.70
2023-10-23T04:22:28.564Z,11.70
2023-10-23T04:23:28.555Z,16.20
2023-10-23T04:24:28.596Z,11.60
2023-10-23T04:25:28.554Z,13.80
2023-10-23T04:26:28.527Z,11.40
2023-10-23T04:27:28.529Z,11.60
2023-10-23T04:28:28.504Z,13.60
2023-10-23T04:29:28.514Z,11.00
2023-10-23T04:30:28.534Z,13.80
2023-10-23T04:31:28.491Z,11.30
2023-10-23T04:32:28.478Z,10.70
2023-10-23T04:33:28.505Z,10.90
2023-10-23T04:34:28.458Z,10.40
2023-10-23T04:35:28.421Z,12.30
2023-10-23T04:36:28.449Z,10.50
2023-10-23T04:37:28.419Z,12.10
2023-10-23T04:38:28.393Z,11.40
2023-10-23T04:39:28.417Z,13.30
2023-10-23T04:40:28.380Z,14.30
2023-10-23T04:41:28.375Z,12.20
2023-10-23T04:42:28.372Z,12.20
2023-10-23T04:43:28.361Z,12.40
2023-10-23T04:44:28.360Z,11.20
2023-10-23T04:45:28.337Z,11.50
2023-10-23T04:46:28.382Z,13.60
2023-10-23T04:47:28.302Z,12.20
2023-10-23T04:48:28.418Z,10.40
2023-10-23T04:49:28.276Z,11.10
2023-10-23T04:50:28.268Z,14.80
2023-10-23T04:51:28.297Z,13.10
2023-10-23T04:52:28.242Z,15.00
2023-10-23T04:53:28.245Z,14.50
2023-10-23T04:54:28.261Z,12.30
2023-10-23T04:55:28.208Z,13.30
2023-10-23T04:56:28.217Z,15.40
2023-10-23T04:57:28.243Z,16.00
2023-10-23T04:58:28.292Z,14.20
2023-10-23T04:59:28.160Z,15.80
2023-10-23T05:00:28.200Z,13.70
2023-10-23T05:01:28.199Z,15.70
2023-10-23T05:02:28.188Z,13.40
2023-10-23T05:03:28.211Z,15.20
2023-10-23T05:04:28.182Z,15.50
2023-10-23T05:05:28.097Z,16.30
2023-10-23T05:06:28.134Z,15.50
2023-10-23T05:07:28.092Z,16.50
2023-10-23T05:08:28.075Z,15.00
2023-10-23T05:09:28.081Z,14.00
2023-10-23T05:10:28.053Z,14.70
2023-10-23T05:11:28.046Z,16.90
2023-10-23T05:12:28.061Z,13.90
2023-10-23T05:13:28.009Z,15.40
2023-10-23T05:14:28.008Z,14.40
2023-10-23T05:15:28.007Z,16.70
2023-10-23T05:16:28.070Z,12.10
2023-10-23T05:17:27.967Z,15.60
2023-10-23T05:18:27.972Z,13.80
2023-10-23T05:19:27.946Z,15.90
2023-10-23T05:20:27.943Z,15.20
2023-10-23T05:21:28.007Z,14.40
2023-10-23T05:22:27.918Z,16.20
2023-10-23T05:23:27.912Z,16.30
2023-10-23T05:24:28.311Z,15.40
2023-10-23T05:25:27.895Z,14.40
2023-10-23T05:26:27.887Z,17.00
2023-10-23T05:27:27.912Z,16.80
2023-10-23T05:28:27.851Z,15.80
2023-10-23T05:29:27.838Z,18.10
2023-10-23T05:30:28.008Z,18.30
2023-10-23T05:31:27.822Z,17.30
2023-10-23T05:32:27.823Z,16.90
2023-10-23T05:33:27.799Z,16.90
2023-10-23T05:34:27.778Z,15.60
2023-10-23T05:35:27.783Z,15.90
2023-10-23T05:36:27.780Z,18.50
2023-10-23T05:37:27.738Z,16.90
2023-10-23T05:38:28.643Z,18.90
2023-10-23T05:39:27.750Z,18.80
2023-10-23T05:40:27.719Z,20.40
2023-10-23T05:41:27.696Z,19.50
2023-10-23T05:42:27.716Z,19.20
2023-10-23T05:43:27.697Z,18.10
2023-10-23T05:44:29.403Z,18.70
2023-10-23T05:45:27.721Z,21.50
2023-10-23T05:46:27.732Z,20.90
2023-10-23T05:47:27.661Z,22.60
2023-10-23T05:48:28.163Z,21.30
2023-10-23T05:49:27.614Z,20.00
2023-10-23T05:50:27.601Z,21.30
2023-10-23T05:51:27.597Z,20.00
2023-10-23T05:52:27.627Z,19.50
2023-10-23T05:53:27.583Z,19.60
2023-10-23T05:54:27.597Z,19.60
2023-10-23T05:55:27.537Z,18.90
2023-10-23T05:56:27.540Z,18.10
2023-10-23T05:57:27.534Z,19.00
2023-10-23T05:58:27.525Z,18.70
2023-10-23T05:59:27.500Z,18.80
2023-10-23T06:00:27.503Z,18.30
2023-10-23T06:01:27.503Z,18.60
2023-10-23T06:02:27.485Z,17.90
2023-10-23T06:03:27.531Z,16.20
2023-10-23T06:04:27.576Z,21.80
2023-10-23T06:05:27.424Z,18.30
2023-10-23T06:06:27.497Z,21.10
2023-10-23T06:07:27.457Z,22.20
2023-10-23T06:08:27.408Z,19.60
2023-10-23T06:09:27.397Z,22.80
2023-10-23T06:10:27.370Z,18.10
2023-10-23T06:11:27.358Z,19.70
2023-10-23T06:12:27.381Z,18.80
2023-10-23T06:13:27.335Z,20.90
2023-10-23T06:14:27.328Z,20.50
2023-10-23T06:15:27.330Z,17.90
2023-10-23T06:16:27.365Z,21.20
2023-10-23T06:17:27.377Z,19.90
2023-10-23T06:18:27.315Z,19.00
2023-10-23T06:19:27.269Z,20.70
2023-10-23T06:20:27.265Z,22.90
2023-10-23T06:21:27.314Z,20.30
2023-10-23T06:22:27.254Z,20.40
2023-10-23T06:23:27.223Z,22.20
2023-10-23T06:24:27.238Z,17.80
2023-10-23T06:25:27.208Z,23.60
2023-10-23T06:26:27.206Z,18.50
2023-10-23T06:27:27.204Z,23.20
2023-10-23T06:28:27.169Z,22.00
2023-10-23T06:29:27.154Z,21.90
2023-10-23T06:30:27.196Z,21.90
2023-10-23T06:31:27.163Z,20.70
2023-10-23T06:32:27.181Z,21.60
2023-10-23T06:33:27.130Z,19.40
2023-10-23T06:34:27.105Z,22.20
2023-10-23T06:35:27.095Z,23.00
2023-10-23T06:36:27.134Z,24.40
2023-10-23T06:37:27.069Z,22.60
2023-10-23T06:38:27.075Z,21.50
2023-10-23T06:39:27.039Z,21.30
2023-10-23T06:40:27.061Z,21.50
2023-10-23T06:41:27.013Z,23.00
2023-10-23T06:42:27.018Z,22.50
2023-10-23T06:43:26.990Z,20.10
2023-10-23T06:44:26.989Z,21.50
2023-10-23T06:45:37.640Z,21.60
2023-10-23T06:46:26.989Z,20.20
2023-10-23T06:47:26.999Z,20.20
2023-10-23T06:48:27.003Z,23.80
2023-10-23T06:49:26.930Z,20.50
2023-10-23T06:50:26.930Z,23.30
2023-10-23T06:51:26.898Z,20.90
2023-10-23T06:52:26.896Z,24.20
2023-10-23T06:53:26.873Z,20.30
2023-10-23T06:54:26.932Z,21.40
2023-10-23T06:55:26.852Z,18.50
2023-10-23T06:56:26.847Z,23.50
2023-10-23T06:57:26.834Z,22.90
2023-10-23T06:58:26.830Z,19.10
2023-10-23T06:59:26.844Z,21.00
2023-10-23T07:00:26.814Z,24.30
2023-10-23T07:01:41.598Z,21.20
2023-10-23T07:02:26.841Z,20.10
2023-10-23T07:03:26.870Z,22.00
2023-10-23T07:04:26.788Z,21.20
2023-10-23T07:05:26.744Z,20.60
2023-10-23T07:06:26.740Z,17.20
2023-10-23T07:07:30.038Z,22.80
2023-10-23T07:08:26.741Z,20.40
2023-10-23T07:09:26.727Z,20.50
2023-10-23T07:10:26.700Z,18.70
2023-10-23T07:11:26.687Z,20.10
2023-10-23T07:12:26.684Z,20.50
2023-10-23T07:13:26.690Z,21.20
2023-10-23T07:14:26.663Z,22.60
2023-10-23T07:15:26.693Z,20.30
2023-10-23T07:16:26.728Z,20.60
2023-10-23T07:17:26.668Z,21.30
2023-10-23T07:18:26.696Z,19.90
2023-10-23T07:19:26.605Z,20.80
2023-10-23T07:20:26.602Z,20.50
2023-10-23T07:21:26.623Z,21.00
2023-10-23T07:22:26.575Z,22.10
2023-10-23T07:23:26.585Z,22.30
2023-10-23T07:24:26.554Z,21.00
2023-10-23T07:25:26.542Z,21.90
2023-10-23T07:26:26.560Z,20.90
2023-10-23T07:27:27.732Z,21.60
2023-10-23T07:28:26.628Z,19.40
2023-10-23T07:29:26.492Z,22.30
2023-10-23T07:30:26.518Z,21.00
2023-10-23T07:31:26.497Z,20.70
2023-10-23T07:32:26.516Z,21.50
2023-10-23T07:33:26.451Z,19.40
2023-10-23T07:34:26.444Z,19.30
2023-10-23T07:35:27.117Z,20.20
2023-10-23T07:36:26.418Z,21.50
2023-10-23T07:37:26.413Z,21.80
2023-10-23T07:38:26.391Z,20.20
2023-10-23T07:39:26.395Z,23.00
2023-10-23T07:40:26.366Z,21.70
2023-10-23T07:41:26.347Z,20.30
2023-10-23T07:42:26.353Z,23.10
2023-10-23T07:43:26.406Z,21.80
2023-10-23T07:44:26.338Z,24.10
2023-10-23T07:45:26.332Z,23.00
2023-10-23T07:46:26.356Z,22.20
2023-10-23T07:47:26.357Z,23.90
2023-10-23T07:48:28.578Z,28.50
2023-10-23T07:49:26.256Z,27.10
2023-10-23T07:50:26.274Z,22.30
2023-10-23T07:51:26.245Z,25.10
2023-10-23T07:52:26.222Z,25.60
2023-10-23T07:53:26.223Z,25.20
2023-10-23T07:54:26.211Z,23.00
2023-10-23T07:55:26.215Z,24.40
2023-10-23T07:56:26.201Z,24.00
2023-10-23T07:57:26.162Z,24.60
2023-10-23T07:58:27.109Z,26.70
2023-10-23T07:59:26.141Z,24.10
2023-10-23T08:00:26.145Z,25.10
2023-10-23T08:01:26.212Z,24.60
2023-10-23T08:02:26.246Z,25.40
2023-10-23T08:03:26.163Z,24.40
2023-10-23T08:04:26.180Z,23.80
2023-10-23T08:05:26.104Z,22.30
2023-10-23T08:06:26.076Z,24.70
2023-10-23T08:07:26.052Z,26.90
2023-10-23T08:08:26.044Z,25.40
2023-10-23T08:09:26.028Z,28.30
2023-10-23T08:10:26.055Z,25.60
2023-10-23T08:11:26.057Z,26.20
2023-10-23T08:12:26.037Z,24.60
2023-10-23T08:13:25.999Z,25.90
2023-10-23T08:14:26.016Z,26.40
2023-10-23T08:15:26.117Z,25.60
2023-10-23T08:16:26.063Z,24.70
2023-10-23T08:17:39.274Z,24.20
2023-10-23T08:18:37.485Z,25.80
2023-10-23T08:19:26.053Z,24.20
2023-10-23T08:20:25.913Z,24.70
2023-10-23T08:21:25.900Z,24.20
2023-10-23T08:22:25.940Z,23.40
2023-10-23T08:23:25.880Z,26.70
2023-10-23T08:24:25.881Z,22.30
2023-10-23T08:25:25.930Z,26.50
2023-10-23T08:26:25.849Z,23.90
2023-10-23T08:27:25.834Z,24.00
2023-10-23T08:28:26.079Z,24.70
2023-10-23T08:29:25.826Z,23.80
2023-10-23T08:30:25.805Z,22.80
2023-10-23T08:31:38.524Z,25.90
2023-10-23T08:32:34.041Z,25.60
2023-10-23T08:33:25.902Z,24.90
2023-10-23T08:34:25.917Z,24.00
2023-10-23T08:35:25.795Z,23.60
2023-10-23T08:36:25.752Z,24.30
2023-10-23T08:37:25.830Z,23.50
2023-10-23T08:38:25.726Z,23.50
2023-10-23T08:39:25.703Z,24.00
2023-10-23T08:40:25.693Z,22.00
2023-10-23T08:41:25.680Z,23.40
2023-10-23T08:42:25.671Z,21.60
2023-10-23T08:43:25.914Z,24.20
2023-10-23T08:44:25.807Z,24.40
2023-10-23T08:45:25.715Z,23.00
2023-10-23T08:46:25.725Z,25.20
2023-10-23T08:47:25.636Z,28.60
2023-10-23T08:48:25.617Z,27.50
2023-10-23T08:49:25.659Z,24.00
2023-10-23T08:50:25.583Z,25.30
2023-10-23T08:51:25.573Z,24.20
2023-10-23T08:52:25.642Z,23.70
2023-10-23T08:53:25.553Z,27.90
2023-10-23T08:54:25.543Z,22.00
2023-10-23T08:55:25.610Z,19.80
2023-10-23T08:56:25.520Z,23.80
2023-10-23T08:57:25.538Z,25.40
2023-10-23T08:58:25.508Z,29.80
2023-10-23T08:59:25.480Z,27.20
2023-10-23T09:00:25.471Z,24.00
2023-10-23T09:01:25.525Z,25.70
2023-10-23T09:02:25.459Z,23.80
2023-10-23T09:04:03.278Z,25.50
2023-10-23T09:04:25.673Z,24.60
2023-10-23T09:05:26.056Z,23.60
2023-10-23T09:06:25.581Z,25.00
2023-10-23T09:07:25.421Z,23.30
2023-10-23T09:08:25.405Z,23.40
2023-10-23T09:09:25.393Z,26.80
2023-10-23T09:10:25.421Z,26.70
2023-10-23T09:11:25.351Z,23.50
2023-10-23T09:12:25.338Z,25.10
2023-10-23T09:13:25.324Z,24.40
2023-10-23T09:14:25.319Z,26.60
2023-10-23T09:15:25.329Z,28.40
2023-10-23T09:16:25.404Z,24.50
2023-10-23T09:17:25.305Z,26.30
2023-10-23T09:18:25.276Z,22.60
2023-10-23T09:19:25.269Z,24.50
2023-10-23T09:20:28.362Z,24.10
2023-10-23T09:21:25.348Z,23.20
2023-10-23T09:22:25.241Z,25.20
2023-10-23T09:23:25.213Z,23.50
2023-10-23T09:24:25.203Z,24.50
2023-10-23T09:25:25.277Z,25.00
2023-10-23T09:26:25.183Z,26.90
2023-10-23T09:27:25.168Z,25.20
2023-10-23T09:28:25.161Z,27.70
2023-10-23T09:29:25.172Z,29.40
2023-10-23T09:30:25.151Z,27.10
2023-10-23T09:31:25.210Z,28.10
2023-10-23T09:32:25.119Z,29.10
2023-10-23T09:33:25.116Z,27.30
2023-10-23T09:34:25.124Z,30.10
2023-10-23T09:35:25.090Z,30.30
2023-10-23T09:36:25.073Z,30.80
2023-10-23T09:37:25.094Z,29.90
2023-10-23T09:38:25.052Z,31.50
2023-10-23T09:39:25.079Z,31.80
2023-10-23T09:40:25.063Z,30.90
2023-10-23T09:41:25.016Z,31.20
2023-10-23T09:42:25.016Z,33.50
2023-10-23T09:43:27.490Z,33.90
2023-10-23T09:44:25.001Z,32.20
2023-10-23T09:45:24.982Z,39.50
2023-10-23T09:46:25.048Z,39.70
2023-10-23T09:47:24.944Z,37.50
2023-10-23T09:48:25.019Z,37.50
2023-10-23T09:49:25.047Z,41.80
2023-10-23T09:50:25.599Z,41.10
2023-10-23T09:51:24.901Z,43.20
2023-10-23T09:52:24.962Z,37.70
2023-10-23T09:53:24.896Z,36.70
2023-10-23T09:54:24.890Z,40.40
2023-10-23T09:55:24.900Z,38.90
2023-10-23T09:56:24.847Z,37.70
2023-10-23T09:57:24.834Z,40.20
2023-10-23T09:58:24.890Z,35.40
2023-10-23T09:59:24.816Z,37.40
2023-10-23T10:00:24.810Z,38.20
2023-10-23T10:01:24.836Z,39.30
2023-10-23T10:02:24.822Z,41.80
2023-10-23T10:03:25.691Z,42.70
2023-10-23T10:04:24.775Z,41.00
2023-10-23T10:05:24.742Z,39.00
2023-10-23T10:06:24.757Z,37.90
2023-10-23T10:07:24.841Z,40.40
2023-10-23T10:08:24.723Z,37.20
2023-10-23T10:09:24.705Z,39.30
2023-10-23T10:10:24.743Z,36.40
2023-10-23T10:11:24.678Z,35.10
2023-10-23T10:12:27.529Z,34.00
2023-10-23T10:13:24.704Z,34.50
2023-10-23T10:14:24.661Z,32.90
2023-10-23T10:15:24.644Z,31.00
2023-10-23T10:16:24.694Z,33.20
2023-10-23T10:17:24.644Z,31.10
2023-10-23T10:18:24.633Z,32.00
2023-10-23T10:19:24.609Z,33.70
2023-10-23T10:20:24.579Z,29.60
2023-10-23T10:21:24.575Z,28.60
2023-10-23T10:22:24.642Z,29.40
2023-10-23T10:23:24.542Z,26.30
2023-10-23T10:24:24.535Z,32.60
2023-10-23T10:25:24.564Z,32.00
2023-10-23T10:26:24.531Z,29.30
2023-10-23T10:27:24.507Z,31.50
2023-10-23T10:28:24.538Z,29.60
2023-10-23T10:29:24.481Z,30.40
2023-10-23T10:30:24.469Z,31.50
2023-10-23T10:31:25.038Z,31.30
2023-10-23T10:32:24.488Z,29.60
2023-10-23T10:34:24.947Z,32.80
2023-10-23T10:34:37.619Z,34.40
2023-10-23T10:35:24.473Z,33.30
2023-10-23T10:36:47.001Z,34.40
2023-10-23T10:37:26.230Z,31.70
2023-10-23T10:38:24.392Z,32.90
2023-10-23T10:39:24.377Z,30.40
2023-10-23T10:40:24.497Z,31.90
2023-10-23T10:41:24.343Z,29.90
2023-10-23T10:42:24.337Z,29.90
2023-10-23T10:43:24.340Z,31.50
2023-10-23T10:44:24.326Z,29.20
2023-10-23T10:45:24.347Z,29.00
2023-10-23T10:46:24.447Z,36.20
2023-10-23T10:47:24.293Z,32.30
2023-10-23T10:48:24.278Z,33.60
2023-10-23T10:49:24.326Z,34.60
2023-10-23T10:50:24.265Z,34.40
2023-10-23T10:51:24.229Z,28.20
2023-10-23T10:52:24.324Z,29.40
2023-10-23T10:53:24.213Z,29.80
2023-10-23T10:54:24.216Z,30.60
2023-10-23T10:55:24.261Z,32.60
2023-10-23T10:56:24.221Z,31.40
2023-10-23T10:57:24.166Z,33.30
2023-10-23T10:58:24.189Z,29.60
2023-10-23T10:59:26.614Z,32.30
2023-10-23T11:00:24.168Z,32.40
2023-10-23T11:01:24.213Z,34.40
2023-10-23T11:02:24.129Z,37.10
2023-10-23T11:03:24.246Z,33.60
2023-10-23T11:04:24.164Z,37.00
2023-10-23T11:05:24.088Z,36.20
2023-10-23T11:06:24.060Z,40.80
2023-10-23T11:07:24.137Z,37.80
2023-10-23T11:08:24.050Z,39.30
2023-10-23T11:09:24.073Z,42.10
2023-10-23T11:10:24.036Z,38.20
2023-10-23T11:11:24.020Z,42.50
2023-10-23T11:12:24.000Z,42.90
2023-10-23T11:13:24.019Z,40.50
2023-10-23T11:14:23.972Z,33.80
2023-10-23T11:15:23.969Z,38.90
2023-10-23T11:16:24.096Z,35.40
2023-10-23T11:17:23.941Z,34.50
2023-10-23T11:18:23.946Z,37.90
2023-10-23T11:19:23.922Z,33.70
2023-10-23T11:20:23.903Z,32.50
2023-10-23T11:21:23.898Z,34.10
2023-10-23T11:22:23.927Z,32.50
2023-10-23T11:23:23.884Z,34.50
2023-10-23T11:24:23.857Z,33.60
2023-10-23T11:25:23.860Z,34.80
2023-10-23T11:26:23.842Z,36.30
2023-10-23T11:27:23.843Z,37.40
2023-10-23T11:28:23.823Z,35.90
2023-10-23T11:29:23.823Z,36.20
2023-10-23T11:30:23.788Z,36.20
2023-10-23T11:31:24.069Z,35.90
2023-10-23T11:32:23.784Z,36.40
2023-10-23T11:33:23.768Z,33.70
2023-10-23T11:34:24.623Z,32.60
2023-10-23T11:35:23.754Z,30.90
2023-10-23T11:36:23.750Z,32.50
2023-10-23T11:37:23.793Z,31.90
2023-10-23T11:38:23.711Z,32.40
2023-10-23T11:39:23.694Z,38.10
2023-10-23T11:40:23.722Z,36.30
2023-10-23T11:41:23.871Z,33.70
2023-10-23T11:42:23.679Z,35.70
2023-10-23T11:43:23.719Z,35.00
2023-10-23T11:44:23.641Z,31.50
2023-10-23T11:45:23.639Z,34.40
2023-10-23T11:46:23.720Z,34.20
2023-10-23T11:47:23.622Z,34.20
2023-10-23T11:48:23.598Z,31.50
2023-10-23T11:49:23.625Z,30.70
2023-10-23T11:50:23.588Z,34.10
2023-10-23T11:51:23.569Z,30.70
2023-10-23T11:52:23.571Z,34.10
2023-10-23T11:53:23.587Z,32.60
2023-10-23T11:54:23.526Z,30.70
2023-10-23T11:55:23.554Z,34.90
2023-10-23T11:56:23.506Z,31.60
2023-10-23T11:57:23.489Z,32.40
2023-10-23T11:58:23.513Z,35.20
2023-10-23T11:59:23.469Z,31.20
2023-10-23T12:00:23.490Z,28.50
2023-10-23T12:01:23.564Z,28.50
2023-10-23T12:02:23.469Z,28.90
2023-10-23T12:03:23.422Z,32.90
2023-10-23T12:04:23.518Z,31.80
2023-10-23T12:05:23.434Z,31.20
2023-10-23T12:06:23.410Z,31.10
2023-10-23T12:07:23.476Z,33.70
2023-10-23T12:08:23.513Z,33.10
2023-10-23T12:09:23.372Z,30.80
2023-10-23T12:10:23.375Z,35.10
2023-10-23T12:11:23.339Z,31.10
2023-10-23T12:12:23.326Z,31.30
2023-10-23T12:13:23.342Z,35.10
2023-10-23T12:14:23.331Z,32.00
2023-10-23T12:15:23.312Z,29.60
2023-10-23T12:16:23.346Z,29.90
2023-10-23T12:17:23.270Z,32.20
2023-10-23T12:18:23.274Z,32.70
2023-10-23T12:19:23.288Z,32.70
2023-10-23T12:20:23.706Z,33.80
2023-10-23T12:21:23.280Z,33.30
2023-10-23T12:22:23.261Z,29.70
2023-10-23T12:23:23.208Z,29.30
2023-10-23T12:24:23.280Z,31.50
2023-10-23T12:25:23.305Z,29.60
2023-10-23T12:26:23.205Z,30.70
2023-10-23T12:27:23.194Z,36.30
2023-10-23T12:28:23.201Z,33.30
2023-10-23T12:29:23.165Z,29.60
2023-10-23T12:30:24.260Z,28.00
2023-10-23T12:31:24.922Z,25.80
2023-10-23T12:33:11.603Z,28.80
2023-10-23T12:33:30.353Z,30.40
2023-10-23T12:34:23.275Z,30.60
2023-10-23T12:35:23.277Z,28.20
2023-10-23T12:36:23.064Z,24.50
2023-10-23T12:37:23.150Z,28.60
2023-10-23T12:38:23.043Z,26.80
2023-10-23T12:39:23.027Z,26.00
2023-10-23T12:41:22.999Z,24.40
2023-10-23T12:42:23.020Z,24.50
2023-10-23T12:43:23.022Z,25.30
2023-10-23T12:44:22.973Z,31.40
2023-10-23T12:45:22.954Z,23.00
2023-10-23T12:46:23.035Z,24.50
2023-10-23T12:47:22.983Z,24.10
2023-10-23T12:48:23.013Z,23.60
2023-10-23T12:49:22.947Z,26.10
2023-10-23T12:50:22.921Z,23.50
2023-10-23T12:51:22.894Z,26.30
2023-10-23T12:52:22.955Z,24.50
2023-10-23T12:53:22.885Z,25.00
2023-10-23T12:54:22.861Z,23.30
2023-10-23T12:55:22.902Z,22.60
2023-10-23T12:56:22.843Z,21.90
2023-10-23T12:57:22.817Z,26.80
2023-10-23T12:58:22.936Z,24.30
2023-10-23T12:59:22.798Z,25.70
2023-10-23T13:00:22.796Z,22.40
2023-10-23T13:01:22.866Z,24.30
2023-10-23T13:02:22.774Z,22.90
2023-10-23T13:03:22.761Z,21.30
2023-10-23T13:04:22.918Z,22.60